createdAt,value
2022-08-08T00:00:55.704Z,101708.84
2022-08-08T00:02:57.659Z,101704.25
2022-08-08T00:05:43.866Z,101708.19
2022-08-08T00:08:27.104Z,101705.84
2022-08-08T00:11:00.827Z,101700.94
2022-08-08T00:14:16.880Z,101696.47
2022-08-08T00:16:41.362Z,101701.28
2022-08-08T00:19:17.370Z,101701.78
2022-08-08T00:21:52.430Z,101702.38
2022-08-08T00:24:29.911Z,101705.50
2022-08-08T00:27:05.970Z,101696.59
2022-08-08T00:29:44.196Z,101701.69
2022-08-08T00:32:34.154Z,101700.66
2022-08-08T00:35:21.313Z,101705.47
2022-08-08T00:38:32.040Z,101705.19
2022-08-08T00:42:08.812Z,101696.53
2022-08-08T00:45:03.914Z,101700.03
2022-08-08T00:48:30.553Z,101693.06
2022-08-08T00:51:38.158Z,101693.69
2022-08-08T00:54:51.837Z,101699.56
2022-08-08T00:58:12.726Z,101697.03
2022-08-08T01:00:53.220Z,101699.84
2022-08-08T01:04:11.740Z,101706.09
2022-08-08T01:07:05.732Z,101701.44
2022-08-08T01:10:24.814Z,101715.78
2022-08-08T01:13:43.934Z,101714.13
2022-08-08T01:17:03.494Z,101713.09
2022-08-08T01:20:16.810Z,101708.50
2022-08-08T01:24:06.129Z,101704.66
2022-08-08T01:27:10.852Z,101703.63
2022-08-08T01:30:03.878Z,101712.75
2022-08-08T01:33:33.659Z,101700.91
2022-08-08T01:39:23.922Z,101708.19
2022-08-08T01:42:02.596Z,101702.69
2022-08-08T01:44:58.984Z,101712.72
2022-08-08T01:48:11.541Z,101713.06
2022-08-08T01:50:58.955Z,101707.56
2022-08-08T01:54:12.638Z,101681.56
2022-08-08T01:56:47.449Z,101714.50
2022-08-08T02:00:01.865Z,101708.38
2022-08-08T02:02:42.657Z,101712.28
2022-08-08T02:05:33.821Z,101712.75
2022-08-08T02:08:34.046Z,101693.13
2022-08-08T02:11:23.135Z,101712.34
2022-08-08T02:13:59.652Z,101704.31
2022-08-08T02:16:45.671Z,101706.44
2022-08-08T02:19:41.713Z,101716.78
2022-08-08T02:22:31.585Z,101718.72
2022-08-08T02:25:11.810Z,101727.38
2022-08-08T02:27:50.972Z,101722.44
2022-08-08T02:30:27.097Z,101725.56
2022-08-08T02:33:16.811Z,101724.69
2022-08-08T02:36:05.677Z,101724.53
2022-08-08T02:39:01.393Z,101721.44
2022-08-08T02:42:11.782Z,101722.81
2022-08-08T02:45:23.814Z,101724.03
2022-08-08T02:48:28.342Z,101731.34
2022-08-08T02:51:55.661Z,101722.56
2022-08-08T02:54:53.443Z,101723.66
2022-08-08T02:57:57.431Z,101729.66
2022-08-08T03:00:47.228Z,101722.69
2022-08-08T03:05:03.806Z,101729.59
2022-08-08T03:07:41.871Z,101728.28
2022-08-08T03:10:55.957Z,101730.06
2022-08-08T03:15:57.495Z,101727.56
2022-08-08T03:16:51.682Z,101725.03
2022-08-08T03:19:51.355Z,101725.31
2022-08-08T03:22:38.287Z,101718.31
2022-08-08T03:25:18.087Z,101719.97
2022-08-08T03:27:58.162Z,101722.63
2022-08-08T03:30:29.357Z,101718.78
2022-08-08T03:33:58.138Z,101725.94
2022-08-08T03:36:10.402Z,101726.13
2022-08-08T03:38:56.431Z,101726.56
2022-08-08T03:42:12.593Z,101724.22
2022-08-08T03:44:34.158Z,101725.38
2022-08-08T03:47:07.113Z,101729.28
2022-08-08T03:49:59.829Z,101740.19
2022-08-08T03:52:35.180Z,101736.44
2022-08-08T03:55:19.979Z,101744.34
2022-08-08T03:58:31.986Z,101745.81
2022-08-08T04:01:01.762Z,101751.91
2022-08-08T04:03:59.154Z,101758.88
2022-08-08T04:06:30.121Z,101759.34
2022-08-08T04:09:10.867Z,101759.03
2022-08-08T04:11:58.015Z,101763.34
2022-08-08T04:14:45.171Z,101762.28
2022-08-08T04:17:22.454Z,101761.25
2022-08-08T04:20:04.881Z,101768.13
2022-08-08T04:22:34.158Z,101769.63
2022-08-08T04:25:04.471Z,101771.25
2022-08-08T04:28:03.611Z,101772.75
2022-08-08T04:30:23.054Z,101761.44
2022-08-08T04:32:54.259Z,101768.00
2022-08-08T04:35:29.444Z,101768.31
2022-08-08T04:38:01.177Z,101766.31
2022-08-08T04:40:34.619Z,101767.34
2022-08-08T04:43:05.548Z,101772.44
2022-08-08T04:45:42.665Z,101772.56
2022-08-08T04:48:11.503Z,101764.38
2022-08-08T04:50:46.138Z,101770.94
2022-08-08T04:54:27.444Z,101753.66
2022-08-08T04:56:08.613Z,101773.31
2022-08-08T04:58:38.173Z,101772.56
2022-08-08T05:01:11.340Z,101775.53
2022-08-08T05:04:09.746Z,101776.59
2022-08-08T05:06:39.413Z,101781.34
2022-08-08T05:09:09.171Z,101767.88
2022-08-08T05:11:41.070Z,101779.34
2022-08-08T05:14:14.177Z,101772.78
2022-08-08T05:17:00.606Z,101778.56
2022-08-08T05:20:10.147Z,101777.34
2022-08-08T05:22:27.768Z,101773.66
2022-08-08T05:24:58.091Z,101769.00
2022-08-08T05:27:26.404Z,101769.88
2022-08-08T05:29:56.538Z,101765.47
2022-08-08T05:32:34.347Z,101767.63
2022-08-08T05:35:05.739Z,101764.00
2022-08-08T05:37:52.913Z,101760.13
2022-08-08T05:40:46.489Z,101762.09
2022-08-08T05:43:39.637Z,101771.09
2022-08-08T05:46:11.850Z,101773.72
2022-08-08T05:48:43.480Z,101772.94
2022-08-08T05:51:18.799Z,101772.09
2022-08-08T05:54:25.443Z,101778.56
2022-08-08T05:56:47.292Z,101775.78
2022-08-08T05:59:59.509Z,101779.75
2022-08-08T06:02:48.155Z,101778.97
2022-08-08T06:05:35.144Z,101772.03
2022-08-08T06:08:28.787Z,101784.53
2022-08-08T06:11:02.052Z,101778.50
2022-08-08T06:13:36.215Z,101782.03
2022-08-08T06:16:16.154Z,101793.75
2022-08-08T06:19:12.199Z,101785.03
2022-08-08T06:21:57.056Z,101788.47
2022-08-08T06:24:36.951Z,101782.59
2022-08-08T06:27:10.689Z,101786.66
2022-08-08T06:30:02.172Z,101787.50
2022-08-08T06:32:47.495Z,101788.84
2022-08-08T06:36:05.963Z,101791.84
2022-08-08T06:38:14.726Z,101787.56
2022-08-08T06:40:54.217Z,101809.44
2022-08-08T06:43:33.871Z,101799.16
2022-08-08T06:46:08.712Z,101807.03
2022-08-08T06:48:38.471Z,101801.25
2022-08-08T06:51:08.667Z,101808.69
2022-08-08T06:53:50.698Z,101807.63
2022-08-08T06:56:31.117Z,101809.97
2022-08-08T06:58:59.815Z,101819.31
2022-08-08T07:02:27.719Z,101818.63
2022-08-08T07:04:41.592Z,101820.75
2022-08-08T07:07:20.958Z,101824.31
2022-08-08T07:10:08.351Z,101806.56
2022-08-08T07:12:43.414Z,101826.47
2022-08-08T07:15:32.331Z,101829.59
2022-08-08T07:18:37.180Z,101836.38
2022-08-08T07:21:05.678Z,101841.34
2022-08-08T07:24:01.793Z,101834.53
2022-08-08T07:26:41.217Z,101836.06
2022-08-08T07:30:00.440Z,101836.84
2022-08-08T07:32:00.019Z,101843.41
2022-08-08T07:34:32.422Z,101825.69
2022-08-08T07:37:11.800Z,101846.75
2022-08-08T07:39:55.866Z,101852.66
2022-08-08T07:42:33.378Z,101845.97
2022-08-08T07:45:05.858Z,101857.47
2022-08-08T07:47:39.392Z,101845.00
2022-08-08T07:50:11.092Z,101848.41
2022-08-08T07:52:44.157Z,101854.13
2022-08-08T07:55:20.412Z,101848.47
2022-08-08T07:58:01.126Z,101842.44
2022-08-08T08:00:38.841Z,101855.81
2022-08-08T08:03:23.491Z,101856.03
2022-08-08T08:05:56.686Z,101853.84
2022-08-08T08:08:39.181Z,101852.28
2022-08-08T08:11:20.025Z,101854.19
2022-08-08T08:14:07.471Z,101859.75
2022-08-08T08:16:48.591Z,101849.19
2022-08-08T08:19:21.245Z,101853.53
2022-08-08T08:21:58.059Z,101859.66
2022-08-08T08:24:35.374Z,101852.66
2022-08-08T08:27:09.381Z,101857.66
2022-08-08T08:29:42.427Z,101849.34
2022-08-08T08:32:14.167Z,101855.56
2022-08-08T08:35:00.497Z,101856.03
2022-08-08T08:37:32.164Z,101857.16
2022-08-08T08:40:03.053Z,101853.59
2022-08-08T08:42:38.433Z,101845.13
2022-08-08T08:45:21.220Z,101852.56
2022-08-08T08:47:54.564Z,101858.25
2022-08-08T08:50:33.361Z,101862.00
2022-08-08T08:53:54.743Z,101860.06
2022-08-08T08:56:03.780Z,101854.16
2022-08-08T08:58:42.169Z,101853.69
2022-08-08T09:01:18.483Z,101855.91
2022-08-08T09:03:51.467Z,101856.97
2022-08-08T09:06:33.762Z,101853.28
2022-08-08T09:09:25.898Z,101856.72
2022-08-08T09:12:08.614Z,101851.53
2022-08-08T09:14:45.138Z,101852.63
2022-08-08T09:17:31.871Z,101846.03
2022-08-08T09:22:00.537Z,101840.94
2022-08-08T09:22:59.949Z,101849.72
2022-08-08T09:25:47.641Z,101850.00
2022-08-08T09:28:23.893Z,101842.09
2022-08-08T09:31:13.256Z,101846.56
2022-08-08T09:34:30.045Z,101839.84
2022-08-08T09:37:23.696Z,101843.47
2022-08-08T09:39:36.745Z,101855.03
2022-08-08T09:42:20.840Z,101837.94
2022-08-08T09:45:15.749Z,101849.31
2022-08-08T09:48:09.741Z,101844.06
2022-08-08T09:50:44.068Z,101840.88
2022-08-08T09:53:24.772Z,101827.69
2022-08-08T09:56:14.410Z,101844.66
2022-08-08T09:58:57.822Z,101838.50
2022-08-08T10:01:59.711Z,101847.78
2022-08-08T10:04:35.632Z,101840.47
2022-08-08T10:07:07.886Z,101832.16
2022-08-08T10:09:59.146Z,101828.28
2022-08-08T10:12:37.463Z,101835.63
2022-08-08T10:15:17.391Z,101829.16
2022-08-08T10:18:06.251Z,101829.47
2022-08-08T10:20:51.435Z,101826.69
2022-08-08T10:23:44.193Z,101824.66
2022-08-08T10:26:29.908Z,101820.44
2022-08-08T10:29:04.776Z,101827.59
2022-08-08T10:31:51.787Z,101808.00
2022-08-08T10:34:21.561Z,101820.00
2022-08-08T10:36:51.276Z,101824.16
2022-08-08T10:39:31.607Z,101820.56
2022-08-08T10:42:16.341Z,101825.69
2022-08-08T10:44:45.620Z,101814.78
2022-08-08T10:47:16.426Z,101809.00
2022-08-08T10:50:02.258Z,101823.75
2022-08-08T10:52:33.508Z,101814.00
2022-08-08T10:55:06.976Z,101811.78
2022-08-08T10:57:45.291Z,101817.72
2022-08-08T11:00:23.189Z,101812.47
2022-08-08T11:02:54.722Z,101812.47
2022-08-08T11:05:23.432Z,101807.84
2022-08-08T11:08:36.841Z,101786.91
2022-08-08T11:10:44.009Z,101812.03
2022-08-08T11:13:28.605Z,101801.81
2022-08-08T11:16:00.857Z,101804.00
2022-08-08T11:18:30.796Z,101804.97
2022-08-08T11:21:08.813Z,101802.75
2022-08-08T11:23:43.230Z,101810.13
2022-08-08T11:26:19.154Z,101810.34
2022-08-08T11:28:50.298Z,101806.88
2022-08-08T11:31:21.004Z,101804.22
2022-08-08T11:34:01.707Z,101801.41
2022-08-08T11:36:33.199Z,101804.53
2022-08-08T11:39:06.062Z,101796.25
2022-08-08T11:41:45.136Z,101814.94
2022-08-08T11:44:15.853Z,101804.22
2022-08-08T11:46:45.060Z,101800.81
2022-08-08T11:49:20.838Z,101792.13
2022-08-08T11:51:52.440Z,101796.22
2022-08-08T11:54:34.151Z,101773.00
2022-08-08T11:57:14.664Z,101795.97
2022-08-08T12:00:02.088Z,101785.75
2022-08-08T12:02:48.362Z,101786.59
2022-08-08T12:05:22.557Z,101782.06
2022-08-08T12:07:52.663Z,101786.88
2022-08-08T12:10:23.198Z,101784.75
2022-08-08T12:13:02.503Z,101782.00
2022-08-08T12:15:42.879Z,101770.63
2022-08-08T12:18:21.328Z,101781.00
2022-08-08T12:20:54.252Z,101778.94
2022-08-08T12:23:42.956Z,101784.00
2022-08-08T12:26:28.327Z,101785.22
2022-08-08T12:29:21.290Z,101787.03
2022-08-08T12:32:02.753Z,101782.81
2022-08-08T12:34:39.328Z,101779.53
2022-08-08T12:37:11.324Z,101787.47
2022-08-08T12:40:01.451Z,101788.84
2022-08-08T12:42:33.202Z,101780.47
2022-08-08T12:45:58.448Z,101771.34
2022-08-08T12:48:10.521Z,101773.63
2022-08-08T12:50:51.909Z,101782.06
2022-08-08T12:53:30.239Z,101789.00
2022-08-08T12:56:19.430Z,101783.91
2022-08-08T12:58:54.018Z,101781.03
2022-08-08T13:01:36.954Z,101777.66
2022-08-08T13:04:18.479Z,101787.91
2022-08-08T13:07:00.835Z,101770.13
2022-08-08T13:10:00.587Z,101777.75
2022-08-08T13:12:32.495Z,101735.63
2022-08-08T13:15:03.812Z,101764.34
2022-08-08T13:18:09.045Z,101767.06
2022-08-08T13:20:27.207Z,101763.66
2022-08-08T13:23:41.310Z,101768.84
2022-08-08T13:25:51.068Z,101760.16
2022-08-08T13:28:31.830Z,101765.19
2022-08-08T13:31:01.579Z,101759.25
2022-08-08T13:33:41.621Z,101768.19
2022-08-08T13:36:11.864Z,101765.06
2022-08-08T13:38:40.177Z,101764.47
2022-08-08T13:41:16.664Z,101762.47
2022-08-08T13:43:47.037Z,101764.91
2022-08-08T13:46:26.336Z,101758.19
2022-08-08T13:49:11.410Z,101756.78
2022-08-08T13:51:55.343Z,101756.16
2022-08-08T13:54:31.400Z,101758.31
2022-08-08T13:57:01.562Z,101759.31
2022-08-08T13:59:32.889Z,101760.00
2022-08-08T14:02:07.313Z,101747.69
2022-08-08T14:04:53.286Z,101751.22
2022-08-08T14:07:24.017Z,101755.75
2022-08-08T14:10:04.683Z,101753.66
2022-08-08T14:12:35.935Z,101761.75
2022-08-08T14:15:05.060Z,101761.19
2022-08-08T14:17:57.446Z,101758.41
2022-08-08T14:20:55.988Z,101748.19
2022-08-08T14:24:03.930Z,101751.38
2022-08-08T14:26:10.788Z,101752.88
2022-08-08T14:28:39.698Z,101761.91
2022-08-08T14:31:11.434Z,101749.47
2022-08-08T14:33:52.624Z,101759.56
2022-08-08T14:36:34.658Z,101762.59
2022-08-08T14:39:11.639Z,101744.78
2022-08-08T14:41:45.269Z,101752.22
2022-08-08T14:44:35.055Z,101754.50
2022-08-08T14:47:17.222Z,101754.72
2022-08-08T14:50:05.909Z,101751.88
2022-08-08T14:52:54.132Z,101754.44
2022-08-08T14:55:35.590Z,101744.16
2022-08-08T14:58:12.184Z,101749.66
2022-08-08T15:00:46.474Z,101751.78
2022-08-08T15:03:17.257Z,101749.59
2022-08-08T15:05:53.957Z,101743.56
2022-08-08T15:08:34.986Z,101750.78
2022-08-08T15:11:11.287Z,101753.56
2022-08-08T15:14:01.762Z,101753.66
2022-08-08T15:16:29.769Z,101749.44
2022-08-08T15:19:03.346Z,101743.88
2022-08-08T15:21:31.549Z,101748.59
2022-08-08T15:24:01.205Z,101757.88
2022-08-08T15:26:31.262Z,101759.25
2022-08-08T15:28:59.264Z,101760.06
2022-08-08T15:32:18.926Z,101767.44
2022-08-08T15:34:18.777Z,101757.72
2022-08-08T15:37:02.085Z,101758.88
2022-08-08T15:39:38.146Z,101760.59
2022-08-08T15:42:18.027Z,101756.66
2022-08-08T15:45:00.265Z,101750.34
2022-08-08T15:47:28.374Z,101749.84
2022-08-08T15:49:59.277Z,101751.72
2022-08-08T15:52:27.119Z,101749.06
2022-08-08T15:54:56.484Z,101755.19
2022-08-08T15:57:24.381Z,101759.69
2022-08-08T16:00:26.331Z,101756.16
2022-08-08T16:02:44.197Z,101759.25
2022-08-08T16:05:19.268Z,101759.72
2022-08-08T16:07:52.599Z,101757.84
2022-08-08T16:13:12.068Z,101761.19
2022-08-08T16:13:27.272Z,101762.53
2022-08-08T16:16:16.437Z,101765.84
2022-08-08T16:18:56.453Z,101758.53
2022-08-08T16:21:28.054Z,101763.03
2022-08-08T16:23:57.451Z,101755.63
2022-08-08T16:26:34.516Z,101755.78
2022-08-08T16:29:08.098Z,101761.25
2022-08-08T16:31:40.374Z,101763.03
2022-08-08T16:34:08.916Z,101761.09
2022-08-08T16:36:37.461Z,101759.16
2022-08-08T16:39:09.611Z,101764.06
2022-08-08T16:41:51.107Z,101762.41
2022-08-08T16:44:27.593Z,101774.59
2022-08-08T16:47:17.279Z,101759.91
2022-08-08T16:49:47.840Z,101731.41
2022-08-08T16:55:01.410Z,101758.16
2022-08-08T16:55:42.820Z,101757.09
2022-08-08T16:58:15.359Z,101761.78
2022-08-08T17:00:49.082Z,101756.72
2022-08-08T17:03:25.416Z,101750.09
2022-08-08T17:06:37.702Z,101749.41
2022-08-08T17:08:56.755Z,101762.28
2022-08-08T17:11:28.226Z,101765.47
2022-08-08T17:14:17.721Z,101759.72
2022-08-08T17:16:57.587Z,101760.06
2022-08-08T17:19:27.363Z,101757.97
2022-08-08T17:21:56.991Z,101768.97
2022-08-08T17:24:27.920Z,101771.47
2022-08-08T17:26:58.845Z,101778.91
2022-08-08T17:29:33.755Z,101780.44
2022-08-08T17:32:04.360Z,101775.03
2022-08-08T17:34:52.897Z,101783.47
2022-08-08T17:37:22.511Z,101782.13
2022-08-08T17:40:12.459Z,101776.91
2022-08-08T17:42:41.365Z,101785.25
2022-08-08T17:45:23.548Z,101787.38
2022-08-08T17:47:54.196Z,101787.97
2022-08-08T17:50:23.522Z,101788.69
2022-08-08T17:52:51.867Z,101795.22
2022-08-08T17:56:04.661Z,101793.78
2022-08-08T17:58:09.389Z,101795.00
2022-08-08T18:00:41.335Z,101787.03
2022-08-08T18:03:13.862Z,101794.47
2022-08-08T18:05:43.963Z,101793.22
2022-08-08T18:08:24.783Z,101804.97
2022-08-08T18:11:07.301Z,101806.31
2022-08-08T18:13:41.651Z,101808.59
2022-08-08T18:16:12.798Z,101803.78
2022-08-08T18:18:52.494Z,101805.28
2022-08-08T18:21:35.551Z,101814.38
2022-08-08T18:24:19.541Z,101814.84
2022-08-08T18:26:55.058Z,101810.03
2022-08-08T18:29:30.210Z,101816.94
2022-08-08T18:32:05.251Z,101821.69
2022-08-08T18:34:35.680Z,101819.63
2022-08-08T18:37:08.597Z,101818.56
2022-08-08T18:39:37.876Z,101829.94
2022-08-08T18:42:13.724Z,101832.31
2022-08-08T18:44:55.231Z,101831.22
2022-08-08T18:47:25.981Z,101832.50
2022-08-08T18:49:58.669Z,101834.75
2022-08-08T18:52:30.051Z,101838.63
2022-08-08T18:54:59.376Z,101844.34
2022-08-08T18:57:31.741Z,101844.75
2022-08-08T19:00:10.703Z,101839.84
2022-08-08T19:02:48.363Z,101858.63
2022-08-08T19:05:31.860Z,101843.09
2022-08-08T19:08:24.688Z,101861.19
2022-08-08T19:10:58.639Z,101843.75
2022-08-08T19:13:52.772Z,101864.28
2022-08-08T19:16:18.432Z,101886.16
2022-08-08T19:18:59.952Z,101884.75
2022-08-08T19:21:33.801Z,101887.69
2022-08-08T19:24:18.499Z,101891.63
2022-08-08T19:27:07.075Z,101896.41
2022-08-08T19:29:42.449Z,101901.91
2022-08-08T19:32:19.503Z,101913.16
2022-08-08T19:34:52.050Z,101905.84
2022-08-08T19:37:41.798Z,101914.97
2022-08-08T19:40:14.624Z,101917.88
2022-08-08T19:42:44.318Z,101879.38
2022-08-08T19:45:13.960Z,101922.16
2022-08-08T19:47:42.224Z,101916.16
2022-08-08T19:50:15.058Z,101920.38
2022-08-08T19:52:59.085Z,101925.94
2022-08-08T19:55:27.788Z,101920.06
2022-08-08T19:58:02.503Z,101929.50
2022-08-08T20:00:34.434Z,101912.59
2022-08-08T20:03:14.565Z,101923.72
2022-08-08T20:06:15.522Z,101933.94
2022-08-08T20:08:33.131Z,101924.78
2022-08-08T20:11:01.204Z,101929.69
2022-08-08T20:14:32.643Z,101928.59
2022-08-08T20:16:18.750Z,101936.56
2022-08-08T20:18:53.202Z,101936.25
2022-08-08T20:21:25.255Z,101947.69
2022-08-08T20:23:58.176Z,101947.69
2022-08-08T20:26:29.976Z,101949.91
2022-08-08T20:29:00.254Z,101952.31
2022-08-08T20:32:02.829Z,101953.66
2022-08-08T20:34:31.273Z,101951.28
2022-08-08T20:37:03.246Z,101959.38
2022-08-08T20:39:39.338Z,101957.38
2022-08-08T20:42:28.812Z,101954.66
2022-08-08T20:44:58.318Z,101959.00
2022-08-08T20:47:26.844Z,101958.38
2022-08-08T20:50:05.123Z,101956.91
2022-08-08T20:52:35.062Z,101956.31
2022-08-08T20:55:16.287Z,101963.75
2022-08-08T20:57:51.331Z,101971.81
2022-08-08T21:00:19.560Z,101969.03
2022-08-08T21:02:52.498Z,101962.56
2022-08-08T21:05:21.564Z,101966.38
2022-08-08T21:08:37.166Z,101965.91
2022-08-08T21:10:43.276Z,101961.31
2022-08-08T21:13:11.242Z,101966.97
2022-08-08T21:16:04.677Z,101963.16
2022-08-08T21:18:28.017Z,101976.44
2022-08-08T21:20:56.760Z,101956.06
2022-08-08T21:23:59.033Z,101955.06
2022-08-08T21:26:26.812Z,101968.56
2022-08-08T21:28:56.055Z,101969.25
2022-08-08T21:31:53.481Z,101972.44
2022-08-08T21:34:18.659Z,101974.72
2022-08-08T21:36:48.560Z,101968.22
2022-08-08T21:39:19.087Z,101970.66
2022-08-08T21:41:54.063Z,101962.09
2022-08-08T21:44:27.136Z,101976.66
2022-08-08T21:48:08.837Z,101969.53
2022-08-08T21:49:43.065Z,101964.69
2022-08-08T21:54:27.409Z,101962.66
2022-08-08T21:55:04.214Z,101975.16
2022-08-08T21:58:04.215Z,101969.19
2022-08-08T22:00:37.321Z,101984.47
2022-08-08T22:03:11.103Z,101980.63
2022-08-08T22:05:48.503Z,101982.94
2022-08-08T22:08:16.779Z,101978.13
2022-08-08T22:10:54.191Z,101982.56
2022-08-08T22:13:22.879Z,101984.75
2022-08-08T22:15:58.313Z,101980.03
2022-08-08T22:18:29.009Z,101983.44
2022-08-08T22:20:59.502Z,101989.84
2022-08-08T22:23:32.719Z,101980.13
2022-08-08T22:26:26.834Z,101983.19
2022-08-08T22:29:14.680Z,101981.78
2022-08-08T22:31:40.568Z,101982.69
2022-08-08T22:34:15.257Z,101990.19
2022-08-08T22:36:43.483Z,101987.47
2022-08-08T22:39:18.981Z,101992.34
2022-08-08T22:41:49.589Z,101995.63
2022-08-08T22:44:18.083Z,102002.25
2022-08-08T22:46:46.027Z,102008.25
2022-08-08T22:49:20.033Z,102003.78
2022-08-08T22:51:48.287Z,101995.75
2022-08-08T22:54:34.036Z,101999.06
2022-08-08T22:57:11.482Z,102001.06
2022-08-08T22:59:52.915Z,101989.47
2022-08-08T23:02:28.835Z,101994.31
2022-08-08T23:04:57.790Z,102001.81
2022-08-08T23:07:51.541Z,102004.13
2022-08-08T23:10:19.483Z,101999.53
2022-08-08T23:12:51.757Z,102006.13
2022-08-08T23:16:40.541Z,102001.41
2022-08-08T23:18:11.832Z,102002.94
2022-08-08T23:20:41.217Z,102011.31
2022-08-08T23:23:12.163Z,102013.25
2022-08-08T23:25:47.805Z,102015.66
2022-08-08T23:28:19.208Z,102019.13
2022-08-08T23:30:47.848Z,102020.50
2022-08-08T23:33:20.860Z,102019.47
2022-08-08T23:36:08.338Z,102019.19
2022-08-08T23:38:44.351Z,102031.19
2022-08-08T23:41:24.487Z,102030.66
2022-08-08T23:43:56.866Z,102026.78
2022-08-08T23:49:02.870Z,102034.41
2022-08-08T23:49:14.540Z,102028.16
2022-08-08T23:52:04.709Z,102034.94
2022-08-08T23:54:41.285Z,102028.81
2022-08-08T23:57:25.448Z,102023.44
